sensor_id;sensor_type;location;lat;lon;timestamp;P1;durP1;ratioP1;P2;durP2;ratioP2
70165;SDS011;57541;47.408;18.822;2023-04-01T00:00:23;8.98;;;3.15;;
70165;SDS011;57541;47.408;18.822;2023-04-01T00:00:56;6.47;;;3.15;;
70165;SDS011;57541;47.408;18.822;2023-04-01T00:01:28;6.72;;;3.00;;
70165;SDS011;57541;47.408;18.822;2023-04-01T00:02:00;6.70;;;3.17;;
70165;SDS011;57541;47.408;18.822;2023-04-01T00:02:32;6.65;;;3.03;;
70165;SDS011;57541;47.408;18.822;2023-04-01T00:03:03;6.70;;;2.60;;
70165;SDS011;57541;47.408;18.822;2023-04-01T00:03:36;6.88;;;2.92;;
70165;SDS011;57541;47.408;18.822;2023-04-01T00:04:08;5.72;;;2.40;;
70165;SDS011;57541;47.408;18.822;2023-04-01T00:04:40;4.80;;;2.25;;
70165;SDS011;57541;47.408;18.822;2023-04-01T00:05:12;5.03;;;2.50;;
70165;SDS011;57541;47.408;18.822;2023-04-01T00:05:45;5.65;;;2.90;;
70165;SDS011;57541;47.408;18.822;2023-04-01T00:06:17;5.65;;;2.70;;
70165;SDS011;57541;47.408;18.822;2023-04-01T00:06:49;7.97;;;3.38;;
70165;SDS011;57541;47.408;18.822;2023-04-01T00:07:22;6.30;;;3.10;;
70165;SDS011;57541;47.408;18.822;2023-04-01T00:08:01;5.40;;;2.58;;
70165;SDS011;57541;47.408;18.822;2023-04-01T00:08:32;7.10;;;2.75;;
70165;SDS011;57541;47.408;18.822;2023-04-01T00:09:04;8.10;;;3.30;;
70165;SDS011;57541;47.408;18.822;2023-04-01T00:09:36;5.57;;;2.92;;
70165;SDS011;57541;47.408;18.822;2023-04-01T00:10:09;5.60;;;3.00;;
70165;SDS011;57541;47.408;18.822;2023-04-01T00:10:42;7.63;;;3.40;;
70165;SDS011;57541;47.408;18.822;2023-04-01T00:11:14;9.82;;;3.30;;
70165;SDS011;57541;47.408;18.822;2023-04-01T00:11:46;7.45;;;3.20;;
70165;SDS011;57541;47.408;18.822;2023-04-01T00:12:18;7.30;;;3.35;;
70165;SDS011;57541;47.408;18.822;2023-04-01T00:12:49;6.88;;;3.30;;
70165;SDS011;57541;47.408;18.822;2023-04-01T00:13:21;6.80;;;3.58;;
70165;SDS011;57541;47.408;18.822;2023-04-01T00:13:53;7.30;;;3.47;;
70165;SDS011;57541;47.408;18.822;2023-04-01T00:14:25;7.00;;;3.58;;
70165;SDS011;57541;47.408;18.822;2023-04-01T00:14:57;9.80;;;3.67;;
70165;SDS011;57541;47.408;18.822;2023-04-01T00:15:29;7.43;;;3.58;;
70165;SDS011;57541;47.408;18.822;2023-04-01T00:16:02;6.65;;;3.40;;
70165;SDS011;57541;47.408;18.822;2023-04-01T00:16:50;7.40;;;3.72;;
70165;SDS011;57541;47.408;18.822;2023-04-01T00:17:22;9.88;;;4.40;;
70165;SDS011;57541;47.408;18.822;2023-04-01T00:17:54;10.07;;;3.88;;
70165;SDS011;57541;47.408;18.822;2023-04-01T00:18:26;8.88;;;4.10;;
70165;SDS011;57541;47.408;18.822;2023-04-01T00:18:58;8.50;;;4.32;;
70165;SDS011;57541;47.408;18.822;2023-04-01T00:19:31;8.40;;;4.50;;
70165;SDS011;57541;47.408;18.822;2023-04-01T00:20:04;8.65;;;4.25;;
70165;SDS011;57541;47.408;18.822;2023-04-01T00:20:38;10.20;;;4.03;;
70165;SDS011;57541;47.408;18.822;2023-04-01T00:21:10;10.57;;;4.72;;
70165;SDS011;57541;47.408;18.822;2023-04-01T00:21:41;8.60;;;4.28;;
70165;SDS011;57541;47.408;18.822;2023-04-01T00:22:13;9.20;;;4.70;;
70165;SDS011;57541;47.408;18.822;2023-04-01T00:22:45;8.85;;;4.50;;
70165;SDS011;57541;47.408;18.822;2023-04-01T00:23:17;10.18;;;4.80;;
70165;SDS011;57541;47.408;18.822;2023-04-01T00:23:49;9.13;;;4.47;;
70165;SDS011;57541;47.408;18.822;2023-04-01T00:24:22;9.50;;;5.07;;
70165;SDS011;57541;47.408;18.822;2023-04-01T00:24:54;8.38;;;4.50;;
70165;SDS011;57541;47.408;18.822;2023-04-01T00:25:26;7.78;;;4.38;;
70165;SDS011;57541;47.408;18.822;2023-04-01T00:25:59;9.13;;;4.40;;
70165;SDS011;57541;47.408;18.822;2023-04-01T00:26:32;9.27;;;5.03;;
70165;SDS011;57541;47.408;18.822;2023-04-01T00:27:04;10.35;;;4.68;;
70165;SDS011;57541;47.408;18.822;2023-04-01T00:27:35;9.30;;;4.60;;
70165;SDS011;57541;47.408;18.822;2023-04-01T00:28:07;8.77;;;4.82;;
70165;SDS011;57541;47.408;18.822;2023-04-01T00:28:39;9.45;;;4.90;;
70165;SDS011;57541;47.408;18.822;2023-04-01T00:29:11;10.88;;;5.03;;
70165;SDS011;57541;47.408;18.822;2023-04-01T00:29:44;10.27;;;5.18;;
70165;SDS011;57541;47.408;18.822;2023-04-01T00:30:16;9.25;;;4.95;;
70165;SDS011;57541;47.408;18.822;2023-04-01T00:30:48;10.13;;;5.45;;
70165;SDS011;57541;47.408;18.822;2023-04-01T00:31:20;9.65;;;4.85;;
70165;SDS011;57541;47.408;18.822;2023-04-01T00:31:52;9.05;;;5.40;;
70165;SDS011;57541;47.408;18.822;2023-04-01T00:32:23;9.05;;;4.72;;
70165;SDS011;57541;47.408;18.822;2023-04-01T00:32:56;9.40;;;4.88;;
70165;SDS011;57541;47.408;18.822;2023-04-01T00:33:28;9.70;;;4.95;;
70165;SDS011;57541;47.408;18.822;2023-04-01T00:33:59;9.95;;;5.05;;
70165;SDS011;57541;47.408;18.822;2023-04-01T00:34:31;10.80;;;5.53;;
70165;SDS011;57541;47.408;18.822;2023-04-01T00:35:03;9.18;;;4.60;;
70165;SDS011;57541;47.408;18.822;2023-04-01T00:35:35;8.65;;;4.97;;
70165;SDS011;57541;47.408;18.822;2023-04-01T00:36:08;11.00;;;4.60;;
70165;SDS011;57541;47.408;18.822;2023-04-01T00:36:47;10.43;;;4.97;;
70165;SDS011;57541;47.408;18.822;2023-04-01T00:37:19;11.55;;;5.30;;
70165;SDS011;57541;47.408;18.822;2023-04-01T00:37:52;9.38;;;5.35;;
70165;SDS011;57541;47.408;18.822;2023-04-01T00:38:23;8.75;;;5.22;;
70165;SDS011;57541;47.408;18.822;2023-04-01T00:38:55;10.32;;;5.30;;
70165;SDS011;57541;47.408;18.822;2023-04-01T00:39:30;9.73;;;5.38;;
70165;SDS011;57541;47.408;18.822;2023-04-01T00:40:04;12.30;;;5.63;;
70165;SDS011;57541;47.408;18.822;2023-04-01T00:40:39;11.15;;;5.57;;
70165;SDS011;57541;47.408;18.822;2023-04-01T00:41:15;10.10;;;5.28;;
70165;SDS011;57541;47.408;18.822;2023-04-01T00:41:48;10.43;;;5.20;;
70165;SDS011;57541;47.408;18.822;2023-04-01T00:42:20;8.60;;;4.57;;
70165;SDS011;57541;47.408;18.822;2023-04-01T00:42:51;9.38;;;5.32;;
70165;SDS011;57541;47.408;18.822;2023-04-01T00:43:23;9.75;;;5.10;;
70165;SDS011;57541;47.408;18.822;2023-04-01T00:44:11;11.15;;;5.68;;
70165;SDS011;57541;47.408;18.822;2023-04-01T00:44:50;11.05;;;7.32;;
70165;SDS011;57541;47.408;18.822;2023-04-01T00:45:34;11.07;;;6.68;;
70165;SDS011;57541;47.408;18.822;2023-04-01T00:46:08;8.55;;;5.43;;
70165;SDS011;57541;47.408;18.822;2023-04-01T00:46:40;9.25;;;4.97;;
70165;SDS011;57541;47.408;18.822;2023-04-01T00:47:12;10.85;;;5.22;;
70165;SDS011;57541;47.408;18.822;2023-04-01T00:47:44;8.80;;;4.57;;
70165;SDS011;57541;47.408;18.822;2023-04-01T00:48:16;9.90;;;5.05;;
70165;SDS011;57541;47.408;18.822;2023-04-01T00:48:52;8.55;;;4.57;;
70165;SDS011;57541;47.408;18.822;2023-04-01T00:49:27;11.88;;;5.10;;
70165;SDS011;57541;47.408;18.822;2023-04-01T00:50:02;10.13;;;4.75;;
70165;SDS011;57541;47.408;18.822;2023-04-01T00:50:33;8.02;;;4.38;;
70165;SDS011;57541;47.408;18.822;2023-04-01T00:51:11;8.38;;;4.47;;
70165;SDS011;57541;47.408;18.822;2023-04-01T00:51:47;8.65;;;4.30;;
70165;SDS011;57541;47.408;18.822;2023-04-01T00:52:22;7.90;;;4.28;;
70165;SDS011;57541;47.408;18.822;2023-04-01T00:52:55;8.68;;;3.92;;
70165;SDS011;57541;47.408;18.822;2023-04-01T00:53:27;8.90;;;4.60;;
70165;SDS011;57541;47.408;18.822;2023-04-01T00:53:59;8.10;;;4.20;;
70165;SDS011;57541;47.408;18.822;2023-04-01T00:54:34;8.20;;;4.60;;
70165;SDS011;57541;47.408;18.822;2023-04-01T00:55:07;9.32;;;4.50;;
70165;SDS011;57541;47.408;18.822;2023-04-01T00:55:43;9.07;;;4.50;;
70165;SDS011;57541;47.408;18.822;2023-04-01T00:57:23;9.52;;;4.95;;
70165;SDS011;57541;47.408;18.822;2023-04-01T00:57:31;9.23;;;4.45;;
70165;SDS011;57541;47.408;18.822;2023-04-01T00:58:08;8.25;;;4.10;;
70165;SDS011;57541;47.408;18.822;2023-04-01T00:58:46;8.40;;;4.20;;
70165;SDS011;57541;47.408;18.822;2023-04-01T00:59:23;10.25;;;4.43;;
70165;SDS011;57541;47.408;18.822;2023-04-01T00:59:57;9.32;;;4.40;;
70165;SDS011;57541;47.408;18.822;2023-04-01T01:00:30;9.15;;;4.15;;
70165;SDS011;57541;47.408;18.822;2023-04-01T01:01:02;9.52;;;4.30;;
70165;SDS011;57541;47.408;18.822;2023-04-01T01:01:35;9.27;;;4.20;;
70165;SDS011;57541;47.408;18.822;2023-04-01T01:02:07;7.20;;;4.18;;
70165;SDS011;57541;47.408;18.822;2023-04-01T01:02:41;7.82;;;4.30;;
70165;SDS011;57541;47.408;18.822;2023-04-01T01:03:15;7.35;;;4.55;;
70165;SDS011;57541;47.408;18.822;2023-04-01T01:03:47;7.68;;;4.18;;
70165;SDS011;57541;47.408;18.822;2023-04-01T01:04:23;9.70;;;4.45;;
70165;SDS011;57541;47.408;18.822;2023-04-01T01:04:59;6.85;;;3.95;;
70165;SDS011;57541;47.408;18.822;2023-04-01T01:05:36;8.73;;;4.35;;
70165;SDS011;57541;47.408;18.822;2023-04-01T01:07:28;8.40;;;4.22;;
70165;SDS011;57541;47.408;18.822;2023-04-01T01:08:57;7.93;;;4.40;;
70165;SDS011;57541;47.408;18.822;2023-04-01T01:10:26;7.60;;;4.32;;
70165;SDS011;57541;47.408;18.822;2023-04-01T01:11:05;7.95;;;3.80;;
70165;SDS011;57541;47.408;18.822;2023-04-01T01:11:42;7.43;;;4.30;;
70165;SDS011;57541;47.408;18.822;2023-04-01T01:12:23;8.10;;;4.13;;
70165;SDS011;57541;47.408;18.822;2023-04-01T01:13:10;8.63;;;4.15;;
70165;SDS011;57541;47.408;18.822;2023-04-01T01:16:20;8.70;;;4.35;;
70165;SDS011;57541;47.408;18.822;2023-04-01T01:16:58;7.32;;;4.03;;
70165;SDS011;57541;47.408;18.822;2023-04-01T01:18:20;10.13;;;4.80;;
70165;SDS011;57541;47.408;18.822;2023-04-01T01:19:23;7.53;;;4.07;;
70165;SDS011;57541;47.408;18.822;2023-04-01T01:24:25;7.03;;;4.03;;
70165;SDS011;57541;47.408;18.822;2023-04-01T01:27:40;7.70;;;4.53;;
70165;SDS011;57541;47.408;18.822;2023-04-01T01:33:29;8.27;;;4.43;;
70165;SDS011;57541;47.408;18.822;2023-04-01T01:34:28;9.60;;;4.40;;
70165;SDS011;57541;47.408;18.822;2023-04-01T01:35:14;7.05;;;4.38;;
70165;SDS011;57541;47.408;18.822;2023-04-01T01:35:48;9.18;;;5.20;;
70165;SDS011;57541;47.408;18.822;2023-04-01T01:36:22;8.32;;;4.40;;
70165;SDS011;57541;47.408;18.822;2023-04-01T01:37:01;7.95;;;4.70;;
70165;SDS011;57541;47.408;18.822;2023-04-01T01:37:40;9.05;;;4.60;;
70165;SDS011;57541;47.408;18.822;2023-04-01T01:38:14;9.43;;;5.25;;
70165;SDS011;57541;47.408;18.822;2023-04-01T01:38:48;7.80;;;4.80;;
70165;SDS011;57541;47.408;18.822;2023-04-01T01:39:21;8.32;;;4.93;;
70165;SDS011;57541;47.408;18.822;2023-04-01T01:40:01;7.82;;;4.63;;
70165;SDS011;57541;47.408;18.822;2023-04-01T01:40:35;8.23;;;4.93;;
70165;SDS011;57541;47.408;18.822;2023-04-01T01:41:08;8.93;;;4.68;;
70165;SDS011;57541;47.408;18.822;2023-04-01T01:41:42;7.97;;;4.68;;
70165;SDS011;57541;47.408;18.822;2023-04-01T01:42:16;8.90;;;4.75;;
70165;SDS011;57541;47.408;18.822;2023-04-01T01:42:52;8.25;;;4.97;;
70165;SDS011;57541;47.408;18.822;2023-04-01T01:43:29;9.43;;;4.80;;
70165;SDS011;57541;47.408;18.822;2023-04-01T01:44:03;8.75;;;4.85;;
70165;SDS011;57541;47.408;18.822;2023-04-01T01:44:38;8.63;;;4.57;;
70165;SDS011;57541;47.408;18.822;2023-04-01T01:45:12;8.35;;;5.05;;
70165;SDS011;57541;47.408;18.822;2023-04-01T01:45:50;9.23;;;4.97;;
70165;SDS011;57541;47.408;18.822;2023-04-01T01:46:26;10.25;;;5.38;;
70165;SDS011;57541;47.408;18.822;2023-04-01T01:47:00;8.93;;;4.85;;
70165;SDS011;57541;47.408;18.822;2023-04-01T01:47:33;8.73;;;5.00;;
70165;SDS011;57541;47.408;18.822;2023-04-01T01:48:06;9.57;;;5.28;;
70165;SDS011;57541;47.408;18.822;2023-04-01T01:48:40;9.45;;;5.38;;
70165;SDS011;57541;47.408;18.822;2023-04-01T01:49:13;8.20;;;4.55;;
70165;SDS011;57541;47.408;18.822;2023-04-01T01:49:46;9.65;;;5.22;;
70165;SDS011;57541;47.408;18.822;2023-04-01T01:50:18;8.55;;;4.85;;
70165;SDS011;57541;47.408;18.822;2023-04-01T01:50:52;7.50;;;5.20;;
70165;SDS011;57541;47.408;18.822;2023-04-01T01:51:25;8.75;;;5.28;;
70165;SDS011;57541;47.408;18.822;2023-04-01T01:51:58;8.25;;;5.28;;
70165;SDS011;57541;47.408;18.822;2023-04-01T01:52:31;9.32;;;5.13;;
70165;SDS011;57541;47.408;18.822;2023-04-01T01:53:04;8.27;;;4.82;;
70165;SDS011;57541;47.408;18.822;2023-04-01T01:53:37;8.10;;;5.13;;
70165;SDS011;57541;47.408;18.822;2023-04-01T01:54:12;9.98;;;4.97;;
70165;SDS011;57541;47.408;18.822;2023-04-01T01:54:48;8.27;;;4.88;;
70165;SDS011;57541;47.408;18.822;2023-04-01T01:56:00;8.35;;;4.60;;
70165;SDS011;57541;47.408;18.822;2023-04-01T01:56:32;7.95;;;5.13;;
70165;SDS011;57541;47.408;18.822;2023-04-01T01:57:07;8.13;;;5.03;;
70165;SDS011;57541;47.408;18.822;2023-04-01T01:57:41;9.38;;;4.97;;
70165;SDS011;57541;47.408;18.822;2023-04-01T01:59:00;8.15;;;5.18;;
70165;SDS011;57541;47.408;18.822;2023-04-01T01:59:35;9.13;;;4.80;;
70165;SDS011;57541;47.408;18.822;2023-04-01T02:00:11;9.27;;;5.32;;
70165;SDS011;57541;47.408;18.822;2023-04-01T02:00:48;6.78;;;3.03;;
70165;SDS011;57541;47.408;18.822;2023-04-01T02:01:24;8.50;;;3.60;;
70165;SDS011;57541;47.408;18.822;2023-04-01T02:01:59;6.82;;;3.50;;
70165;SDS011;57541;47.408;18.822;2023-04-01T02:02:31;7.68;;;4.18;;
70165;SDS011;57541;47.408;18.822;2023-04-01T02:03:03;8.52;;;4.22;;
70165;SDS011;57541;47.408;18.822;2023-04-01T02:03:37;7.88;;;4.22;;
70165;SDS011;57541;47.408;18.822;2023-04-01T02:04:12;6.22;;;3.20;;
70165;SDS011;57541;47.408;18.822;2023-04-01T02:04:46;6.88;;;3.60;;
70165;SDS011;57541;47.408;18.822;2023-04-01T02:05:19;7.60;;;3.50;;
70165;SDS011;57541;47.408;18.822;2023-04-01T02:05:55;8.15;;;3.40;;
70165;SDS011;57541;47.408;18.822;2023-04-01T02:06:31;5.70;;;3.28;;
70165;SDS011;57541;47.408;18.822;2023-04-01T02:07:10;8.50;;;3.50;;
70165;SDS011;57541;47.408;18.822;2023-04-01T02:08:07;6.70;;;3.63;;
70165;SDS011;57541;47.408;18.822;2023-04-01T02:09:36;7.00;;;3.90;;
70165;SDS011;57541;47.408;18.822;2023-04-01T02:10:09;9.07;;;4.07;;
70165;SDS011;57541;47.408;18.822;2023-04-01T02:10:42;8.40;;;4.13;;
70165;SDS011;57541;47.408;18.822;2023-04-01T02:11:17;7.70;;;3.90;;
70165;SDS011;57541;47.408;18.822;2023-04-01T02:11:59;7.65;;;4.10;;
70165;SDS011;57541;47.408;18.822;2023-04-01T02:12:35;7.93;;;4.25;;
70165;SDS011;57541;47.408;18.822;2023-04-01T02:13:19;7.38;;;4.50;;
70165;SDS011;57541;47.408;18.822;2023-04-01T02:13:58;6.97;;;3.78;;
70165;SDS011;57541;47.408;18.822;2023-04-01T02:15:21;8.48;;;4.07;;
70165;SDS011;57541;47.408;18.822;2023-04-01T02:15:37;7.88;;;4.22;;
70165;SDS011;57541;47.408;18.822;2023-04-01T02:16:16;6.40;;;4.07;;
70165;SDS011;57541;47.408;18.822;2023-04-01T02:16:56;7.05;;;3.85;;
70165;SDS011;57541;47.408;18.822;2023-04-01T02:17:31;8.07;;;4.35;;
70165;SDS011;57541;47.408;18.822;2023-04-01T02:18:05;7.10;;;3.85;;
70165;SDS011;57541;47.408;18.822;2023-04-01T02:18:36;6.95;;;4.00;;
70165;SDS011;57541;47.408;18.822;2023-04-01T02:19:10;8.02;;;4.43;;
70165;SDS011;57541;47.408;18.822;2023-04-01T02:19:47;7.47;;;3.88;;
70165;SDS011;57541;47.408;18.822;2023-04-01T02:20:30;6.95;;;4.00;;
70165;SDS011;57541;47.408;18.822;2023-04-01T02:21:03;10.13;;;4.35;;
70165;SDS011;57541;47.408;18.822;2023-04-01T02:21:36;7.68;;;3.92;;
70165;SDS011;57541;47.408;18.822;2023-04-01T02:22:11;6.60;;;3.83;;
70165;SDS011;57541;47.408;18.822;2023-04-01T02:22:53;6.90;;;3.80;;
70165;SDS011;57541;47.408;18.822;2023-04-01T02:23:26;8.00;;;4.07;;
70165;SDS011;57541;47.408;18.822;2023-04-01T02:24:00;8.05;;;3.95;;
70165;SDS011;57541;47.408;18.822;2023-04-01T02:24:35;8.75;;;3.85;;
70165;SDS011;57541;47.408;18.822;2023-04-01T02:25:13;7.88;;;4.10;;
70165;SDS011;57541;47.408;18.822;2023-04-01T02:25:47;7.70;;;3.78;;
70165;SDS011;57541;47.408;18.822;2023-04-01T02:26:19;7.80;;;4.10;;
70165;SDS011;57541;47.408;18.822;2023-04-01T02:26:52;6.80;;;3.85;;
70165;SDS011;57541;47.408;18.822;2023-04-01T02:27:23;8.93;;;4.40;;
70165;SDS011;57541;47.408;18.822;2023-04-01T02:27:57;8.55;;;4.30;;
70165;SDS011;57541;47.408;18.822;2023-04-01T02:28:30;8.05;;;4.20;;
70165;SDS011;57541;47.408;18.822;2023-04-01T02:29:03;7.05;;;4.13;;
70165;SDS011;57541;47.408;18.822;2023-04-01T02:29:37;6.82;;;4.25;;
70165;SDS011;57541;47.408;18.822;2023-04-01T02:30:09;6.90;;;3.88;;
70165;SDS011;57541;47.408;18.822;2023-04-01T02:30:41;7.15;;;3.90;;
70165;SDS011;57541;47.408;18.822;2023-04-01T02:31:14;7.50;;;3.90;;
70165;SDS011;57541;47.408;18.822;2023-04-01T02:31:47;7.85;;;4.35;;
70165;SDS011;57541;47.408;18.822;2023-04-01T02:32:20;8.20;;;3.67;;
70165;SDS011;57541;47.408;18.822;2023-04-01T02:32:52;8.43;;;4.28;;
70165;SDS011;57541;47.408;18.822;2023-04-01T02:33:25;7.57;;;4.03;;
70165;SDS011;57541;47.408;18.822;2023-04-01T02:33:58;9.20;;;3.95;;
70165;SDS011;57541;47.408;18.822;2023-04-01T02:34:30;9.45;;;3.80;;
70165;SDS011;57541;47.408;18.822;2023-04-01T02:35:02;7.40;;;3.95;;
70165;SDS011;57541;47.408;18.822;2023-04-01T02:35:37;7.65;;;3.92;;
70165;SDS011;57541;47.408;18.822;2023-04-01T02:36:12;7.40;;;3.55;;
70165;SDS011;57541;47.408;18.822;2023-04-01T02:36:45;7.70;;;3.78;;
70165;SDS011;57541;47.408;18.822;2023-04-01T02:37:19;6.70;;;3.92;;
70165;SDS011;57541;47.408;18.822;2023-04-01T02:37:51;7.28;;;3.78;;
70165;SDS011;57541;47.408;18.822;2023-04-01T02:38:25;7.28;;;4.00;;
70165;SDS011;57541;47.408;18.822;2023-04-01T02:38:57;7.05;;;4.15;;
70165;SDS011;57541;47.408;18.822;2023-04-01T02:39:33;6.35;;;3.67;;
70165;SDS011;57541;47.408;18.822;2023-04-01T02:40:05;7.30;;;3.90;;
70165;SDS011;57541;47.408;18.822;2023-04-01T02:40:46;6.32;;;3.88;;
70165;SDS011;57541;47.408;18.822;2023-04-01T02:41:20;7.20;;;4.28;;
70165;SDS011;57541;47.408;18.822;2023-04-01T02:41:52;6.72;;;3.65;;
70165;SDS011;57541;47.408;18.822;2023-04-01T02:42:23;7.40;;;4.10;;
70165;SDS011;57541;47.408;18.822;2023-04-01T02:42:55;7.35;;;3.90;;
70165;SDS011;57541;47.408;18.822;2023-04-01T02:43:27;7.25;;;3.65;;
70165;SDS011;57541;47.408;18.822;2023-04-01T02:43:59;7.28;;;4.18;;
70165;SDS011;57541;47.408;18.822;2023-04-01T02:44:30;7.13;;;4.10;;
70165;SDS011;57541;47.408;18.822;2023-04-01T02:45:02;8.30;;;3.85;;
70165;SDS011;57541;47.408;18.822;2023-04-01T02:45:35;6.93;;;3.78;;
70165;SDS011;57541;47.408;18.822;2023-04-01T02:46:07;7.10;;;3.88;;
70165;SDS011;57541;47.408;18.822;2023-04-01T02:46:39;8.55;;;4.32;;
70165;SDS011;57541;47.408;18.822;2023-04-01T02:47:10;7.63;;;4.20;;
70165;SDS011;57541;47.408;18.822;2023-04-01T02:47:42;8.13;;;4.13;;
70165;SDS011;57541;47.408;18.822;2023-04-01T02:48:14;8.40;;;4.05;;
70165;SDS011;57541;47.408;18.822;2023-04-01T02:48:45;7.72;;;4.40;;
70165;SDS011;57541;47.408;18.822;2023-04-01T02:49:17;7.32;;;3.97;;
70165;SDS011;57541;47.408;18.822;2023-04-01T02:49:49;7.78;;;3.95;;
70165;SDS011;57541;47.408;18.822;2023-04-01T02:50:20;7.50;;;3.75;;
70165;SDS011;57541;47.408;18.822;2023-04-01T02:50:53;6.95;;;3.90;;
70165;SDS011;57541;47.408;18.822;2023-04-01T02:51:25;8.25;;;4.57;;
70165;SDS011;57541;47.408;18.822;2023-04-01T02:51:57;8.82;;;3.88;;
70165;SDS011;57541;47.408;18.822;2023-04-01T02:52:29;9.63;;;4.20;;
70165;SDS011;57541;47.408;18.822;2023-04-01T02:53:01;6.72;;;3.80;;
70165;SDS011;57541;47.408;18.822;2023-04-01T02:53:34;7.28;;;4.10;;
70165;SDS011;57541;47.408;18.822;2023-04-01T02:54:06;7.68;;;4.10;;
70165;SDS011;57541;47.408;18.822;2023-04-01T02:54:38;8.90;;;4.38;;
70165;SDS011;57541;47.408;18.822;2023-04-01T02:55:09;7.93;;;4.35;;
70165;SDS011;57541;47.408;18.822;2023-04-01T02:55:41;7.38;;;4.38;;
70165;SDS011;57541;47.408;18.822;2023-04-01T02:56:13;9.52;;;4.10;;
70165;SDS011;57541;47.408;18.822;2023-04-01T02:56:45;7.40;;;4.40;;
70165;SDS011;57541;47.408;18.822;2023-04-01T02:57:17;7.85;;;4.68;;
70165;SDS011;57541;47.408;18.822;2023-04-01T02:57:48;8.55;;;4.55;;
70165;SDS011;57541;47.408;18.822;2023-04-01T02:58:20;8.52;;;4.85;;
70165;SDS011;57541;47.408;18.822;2023-04-01T02:58:52;8.35;;;4.50;;
70165;SDS011;57541;47.408;18.822;2023-04-01T02:59:25;9.02;;;5.00;;
70165;SDS011;57541;47.408;18.822;2023-04-01T02:59:56;8.02;;;4.68;;
70165;SDS011;57541;47.408;18.822;2023-04-01T03:00:28;8.05;;;4.90;;
70165;SDS011;57541;47.408;18.822;2023-04-01T03:01:00;9.07;;;4.90;;
70165;SDS011;57541;47.408;18.822;2023-04-01T03:01:31;8.63;;;4.45;;
70165;SDS011;57541;47.408;18.822;2023-04-01T03:02:03;8.88;;;5.00;;
70165;SDS011;57541;47.408;18.822;2023-04-01T03:02:35;8.30;;;4.63;;
70165;SDS011;57541;47.408;18.822;2023-04-01T03:03:08;7.63;;;4.65;;
70165;SDS011;57541;47.408;18.822;2023-04-01T03:03:40;8.00;;;4.63;;
70165;SDS011;57541;47.408;18.822;2023-04-01T03:04:12;9.70;;;4.63;;
70165;SDS011;57541;47.408;18.822;2023-04-01T03:04:43;8.27;;;4.35;;
70165;SDS011;57541;47.408;18.822;2023-04-01T03:05:15;10.18;;;5.00;;
70165;SDS011;57541;47.408;18.822;2023-04-01T03:05:47;7.95;;;5.50;;
70165;SDS011;57541;47.408;18.822;2023-04-01T03:06:19;8.65;;;4.53;;
70165;SDS011;57541;47.408;18.822;2023-04-01T03:06:50;8.45;;;4.82;;
70165;SDS011;57541;47.408;18.822;2023-04-01T03:07:22;9.10;;;5.07;;
70165;SDS011;57541;47.408;18.822;2023-04-01T03:07:54;8.77;;;5.03;;
70165;SDS011;57541;47.408;18.822;2023-04-01T03:08:26;9.57;;;5.28;;
70165;SDS011;57541;47.408;18.822;2023-04-01T03:08:57;8.68;;;4.90;;
70165;SDS011;57541;47.408;18.822;2023-04-01T03:09:29;10.80;;;5.85;;
70165;SDS011;57541;47.408;18.822;2023-04-01T03:10:01;11.55;;;5.60;;
70165;SDS011;57541;47.408;18.822;2023-04-01T03:10:33;9.93;;;5.50;;
70165;SDS011;57541;47.408;18.822;2023-04-01T03:11:04;10.10;;;6.22;;
70165;SDS011;57541;47.408;18.822;2023-04-01T03:11:37;13.82;;;6.25;;
70165;SDS011;57541;47.408;18.822;2023-04-01T03:12:08;10.40;;;6.13;;
70165;SDS011;57541;47.408;18.822;2023-04-01T03:12:40;11.70;;;6.85;;
70165;SDS011;57541;47.408;18.822;2023-04-01T03:13:12;10.48;;;5.90;;
70165;SDS011;57541;47.408;18.822;2023-04-01T03:13:44;11.02;;;6.55;;
70165;SDS011;57541;47.408;18.822;2023-04-01T03:14:15;11.23;;;5.93;;
70165;SDS011;57541;47.408;18.822;2023-04-01T03:14:47;10.65;;;6.03;;
70165;SDS011;57541;47.408;18.822;2023-04-01T03:15:19;13.50;;;6.28;;
70165;SDS011;57541;47.408;18.822;2023-04-01T03:15:50;12.05;;;5.68;;
70165;SDS011;57541;47.408;18.822;2023-04-01T03:16:23;9.40;;;5.70;;
70165;SDS011;57541;47.408;18.822;2023-04-01T03:16:54;11.35;;;5.55;;
70165;SDS011;57541;47.408;18.822;2023-04-01T03:17:26;9.25;;;5.18;;
70165;SDS011;57541;47.408;18.822;2023-04-01T03:17:58;9.18;;;5.50;;
70165;SDS011;57541;47.408;18.822;2023-04-01T03:18:30;11.43;;;5.90;;
70165;SDS011;57541;47.408;18.822;2023-04-01T03:19:01;9.85;;;5.60;;
70165;SDS011;57541;47.408;18.822;2023-04-01T03:19:33;9.20;;;5.53;;
70165;SDS011;57541;47.408;18.822;2023-04-01T03:20:05;10.00;;;5.53;;
70165;SDS011;57541;47.408;18.822;2023-04-01T03:20:39;12.20;;;6.13;;
70165;SDS011;57541;47.408;18.822;2023-04-01T03:21:15;11.85;;;5.57;;
70165;SDS011;57541;47.408;18.822;2023-04-01T03:21:54;10.23;;;5.75;;
70165;SDS011;57541;47.408;18.822;2023-04-01T03:22:25;9.95;;;5.10;;
70165;SDS011;57541;47.408;18.822;2023-04-01T03:22:57;9.10;;;4.68;;
70165;SDS011;57541;47.408;18.822;2023-04-01T03:23:28;8.02;;;4.35;;
70165;SDS011;57541;47.408;18.822;2023-04-01T03:24:00;9.63;;;4.88;;
70165;SDS011;57541;47.408;18.822;2023-04-01T03:24:32;8.43;;;5.30;;
70165;SDS011;57541;47.408;18.822;2023-04-01T03:25:04;8.68;;;4.72;;
70165;SDS011;57541;47.408;18.822;2023-04-01T03:25:37;10.25;;;5.30;;
70165;SDS011;57541;47.408;18.822;2023-04-01T03:26:08;9.95;;;5.18;;
70165;SDS011;57541;47.408;18.822;2023-04-01T03:26:40;8.80;;;5.05;;
70165;SDS011;57541;47.408;18.822;2023-04-01T03:27:12;8.88;;;5.10;;
70165;SDS011;57541;47.408;18.822;2023-04-01T03:27:44;9.02;;;5.40;;
70165;SDS011;57541;47.408;18.822;2023-04-01T03:28:15;9.50;;;5.57;;
70165;SDS011;57541;47.408;18.822;2023-04-01T03:28:47;11.20;;;5.30;;
70165;SDS011;57541;47.408;18.822;2023-04-01T03:29:19;10.85;;;5.68;;
70165;SDS011;57541;47.408;18.822;2023-04-01T03:29:51;8.65;;;4.80;;
70165;SDS011;57541;47.408;18.822;2023-04-01T03:30:22;10.43;;;4.72;;
70165;SDS011;57541;47.408;18.822;2023-04-01T03:30:54;9.27;;;5.35;;
70165;SDS011;57541;47.408;18.822;2023-04-01T03:31:26;8.43;;;4.72;;
70165;SDS011;57541;47.408;18.822;2023-04-01T03:31:57;8.85;;;4.88;;
70165;SDS011;57541;47.408;18.822;2023-04-01T03:32:30;9.43;;;5.22;;
70165;SDS011;57541;47.408;18.822;2023-04-01T03:33:01;9.73;;;4.95;;
70165;SDS011;57541;47.408;18.822;2023-04-01T03:33:34;8.75;;;4.75;;
70165;SDS011;57541;47.408;18.822;2023-04-01T03:34:05;8.68;;;4.90;;
70165;SDS011;57541;47.408;18.822;2023-04-01T03:34:37;7.95;;;4.25;;
70165;SDS011;57541;47.408;18.822;2023-04-01T03:35:09;8.63;;;5.15;;
70165;SDS011;57541;47.408;18.822;2023-04-01T03:35:41;9.00;;;4.68;;
70165;SDS011;57541;47.408;18.822;2023-04-01T03:36:13;8.60;;;4.82;;
70165;SDS011;57541;47.408;18.822;2023-04-01T03:36:45;8.40;;;4.50;;
70165;SDS011;57541;47.408;18.822;2023-04-01T03:37:17;8.68;;;5.20;;
70165;SDS011;57541;47.408;18.822;2023-04-01T03:37:50;11.25;;;5.20;;
70165;SDS011;57541;47.408;18.822;2023-04-01T03:38:22;9.75;;;5.15;;
70165;SDS011;57541;47.408;18.822;2023-04-01T03:38:54;8.82;;;5.13;;
70165;SDS011;57541;47.408;18.822;2023-04-01T03:39:26;9.35;;;5.57;;
70165;SDS011;57541;47.408;18.822;2023-04-01T03:39:57;8.55;;;4.55;;
70165;SDS011;57541;47.408;18.822;2023-04-01T03:40:29;8.35;;;4.53;;
70165;SDS011;57541;47.408;18.822;2023-04-01T03:41:01;9.43;;;4.30;;
70165;SDS011;57541;47.408;18.822;2023-04-01T03:41:34;9.98;;;5.10;;
70165;SDS011;57541;47.408;18.822;2023-04-01T03:42:07;9.15;;;4.55;;